createdAt,value
2022-12-29T00:01:26.987Z,94724.16
2022-12-29T00:03:53.633Z,94721.56
2022-12-29T00:06:20.225Z,94714.94
2022-12-29T00:08:46.724Z,94713.31
2022-12-29T00:11:13.817Z,94707.50
2022-12-29T00:14:00.450Z,94706.34
2022-12-29T00:16:27.881Z,94704.53
2022-12-29T00:18:54.432Z,94688.88
2022-12-29T00:21:40.121Z,94695.53
2022-12-29T00:24:10.120Z,94685.13
2022-12-29T00:26:55.071Z,94694.38
2022-12-29T00:29:41.670Z,94675.53
2022-12-29T00:32:27.898Z,94682.94
2022-12-29T00:35:09.571Z,94679.75
2022-12-29T00:37:55.429Z,94681.75
2022-12-29T00:40:40.293Z,94676.53
2022-12-29T00:43:25.282Z,94681.19
2022-12-29T00:45:53.209Z,94680.19
2022-12-29T00:48:38.276Z,94677.22
2022-12-29T00:51:05.127Z,94674.00
2022-12-29T00:53:31.625Z,94674.22
2022-12-29T00:55:58.133Z,94674.63
2022-12-29T00:58:24.573Z,94677.66
2022-12-29T01:00:51.142Z,94674.47
2022-12-29T01:03:19.029Z,94685.88
2022-12-29T01:05:45.654Z,94688.53
2022-12-29T01:08:13.084Z,94683.72
2022-12-29T01:10:39.586Z,94692.75
2022-12-29T01:13:06.119Z,94684.78
2022-12-29T01:15:32.650Z,94675.56
2022-12-29T01:18:00.353Z,94690.19
2022-12-29T01:20:29.546Z,94683.38
2022-12-29T01:22:56.849Z,94670.72
2022-12-29T01:25:23.333Z,94680.31
2022-12-29T01:27:49.860Z,94691.91
2022-12-29T01:30:16.608Z,94685.03
2022-12-29T01:32:44.896Z,94684.38
2022-12-29T01:35:11.907Z,94689.94
2022-12-29T01:37:39.719Z,94688.69
2022-12-29T01:40:06.667Z,94687.22
2022-12-29T01:42:33.728Z,94684.69
2022-12-29T01:45:01.125Z,94694.25
2022-12-29T01:47:31.524Z,94692.34
2022-12-29T01:49:59.669Z,94694.69
2022-12-29T01:52:27.601Z,94690.19
2022-12-29T01:54:56.883Z,94702.41
2022-12-29T01:57:25.314Z,94698.16
2022-12-29T01:59:54.204Z,94707.31
2022-12-29T02:02:20.908Z,94697.22
2022-12-29T02:04:47.568Z,94688.00
2022-12-29T02:07:18.968Z,94685.53
2022-12-29T02:09:47.785Z,94689.13
2022-12-29T02:12:17.535Z,94682.88
2022-12-29T02:14:44.679Z,94682.00
2022-12-29T02:17:15.788Z,94680.56
2022-12-29T02:19:59.489Z,94679.53
2022-12-29T02:22:28.806Z,94680.47
2022-12-29T02:25:13.257Z,94669.38
2022-12-29T02:27:46.178Z,94677.94
2022-12-29T02:30:17.248Z,94674.69
2022-12-29T02:32:51.329Z,94671.19
2022-12-29T02:35:23.472Z,94675.38
2022-12-29T02:37:55.228Z,94669.34
2022-12-29T02:40:24.848Z,94665.31
2022-12-29T02:42:54.119Z,94671.66
2022-12-29T02:45:23.158Z,94663.63
2022-12-29T02:47:53.725Z,94658.72
2022-12-29T02:50:23.738Z,94658.28
2022-12-29T02:52:53.637Z,94653.06
2022-12-29T02:55:20.313Z,94654.09
2022-12-29T02:57:46.786Z,94665.00
2022-12-29T03:00:15.189Z,94651.34
2022-12-29T03:03:02.952Z,94658.38
2022-12-29T03:05:42.964Z,94661.22
2022-12-29T03:08:17.025Z,94654.16
2022-12-29T03:10:49.341Z,94650.09
2022-12-29T03:13:42.934Z,94659.53
2022-12-29T03:16:15.480Z,94644.50
2022-12-29T03:18:45.131Z,94647.13
2022-12-29T03:21:16.903Z,94647.53
2022-12-29T03:23:48.692Z,94636.16
2022-12-29T03:26:19.504Z,94645.47
2022-12-29T03:28:48.794Z,94644.75
2022-12-29T03:31:20.824Z,94648.00
2022-12-29T03:33:48.619Z,94647.06
2022-12-29T03:36:19.327Z,94640.47
2022-12-29T03:38:47.766Z,94660.00
2022-12-29T03:41:16.920Z,94660.88
2022-12-29T03:43:43.849Z,94662.31
2022-12-29T03:46:10.645Z,94657.09
2022-12-29T03:48:39.129Z,94650.84
2022-12-29T03:51:05.887Z,94661.31
2022-12-29T03:53:33.969Z,94636.19
2022-12-29T03:56:00.837Z,94630.53
2022-12-29T03:58:27.331Z,94630.53
2022-12-29T04:01:08.732Z,94631.97
2022-12-29T04:03:37.563Z,94640.03
2022-12-29T04:06:05.004Z,94614.13
2022-12-29T04:08:55.390Z,94623.50
2022-12-29T04:11:22.247Z,94626.81
2022-12-29T04:13:50.075Z,94630.59
2022-12-29T04:16:20.302Z,94613.66
2022-12-29T04:18:47.484Z,94613.38
2022-12-29T04:21:14.135Z,94619.47
2022-12-29T04:23:42.422Z,94622.13
2022-12-29T04:26:11.482Z,94619.78
2022-12-29T04:28:57.453Z,94618.66
2022-12-29T04:31:45.172Z,94622.56
2022-12-29T04:34:12.139Z,94603.13
2022-12-29T04:36:40.559Z,94605.78
2022-12-29T04:39:07.265Z,94623.19
2022-12-29T04:41:36.081Z,94607.59
2022-12-29T04:44:03.257Z,94596.22
2022-12-29T04:46:49.182Z,94607.97
2022-12-29T04:49:41.688Z,94597.41
2022-12-29T04:52:22.242Z,94610.38
2022-12-29T04:54:49.008Z,94583.16
2022-12-29T04:57:20.673Z,94583.06
2022-12-29T04:59:51.380Z,94584.25
2022-12-29T05:02:18.834Z,94584.31
2022-12-29T05:04:47.304Z,94583.75
2022-12-29T05:07:14.052Z,94572.91
2022-12-29T05:09:40.944Z,94583.28
2022-12-29T05:12:07.575Z,94583.63
2022-12-29T05:14:38.501Z,94597.88
2022-12-29T05:17:05.301Z,94590.34
2022-12-29T05:19:32.343Z,94571.53
2022-12-29T05:21:59.311Z,94586.56
2022-12-29T05:24:25.900Z,94587.03
2022-12-29T05:26:55.043Z,94584.16
2022-12-29T05:29:33.264Z,94586.09
2022-12-29T05:32:01.294Z,94591.91
2022-12-29T05:34:28.012Z,94583.25
2022-12-29T05:36:54.760Z,94588.03
2022-12-29T05:39:21.382Z,94586.78
2022-12-29T05:41:53.721Z,94585.97
2022-12-29T05:44:26.508Z,94587.34
2022-12-29T05:47:17.027Z,94587.78
2022-12-29T05:50:10.326Z,94596.56
2022-12-29T05:52:56.303Z,94578.53
2022-12-29T05:55:23.064Z,94579.44
2022-12-29T05:57:52.537Z,94573.97
2022-12-29T06:00:19.239Z,94573.97
2022-12-29T06:02:48.551Z,94574.75
2022-12-29T06:05:17.163Z,94572.13
2022-12-29T06:07:45.767Z,94560.84
2022-12-29T06:10:14.867Z,94559.50
2022-12-29T06:12:45.419Z,94560.50
2022-12-29T06:15:12.026Z,94549.22
2022-12-29T06:17:40.598Z,94537.16
2022-12-29T06:20:09.549Z,94537.72
2022-12-29T06:22:36.229Z,94536.22
2022-12-29T06:25:05.288Z,94534.94
2022-12-29T06:27:33.482Z,94543.59
2022-12-29T06:30:00.831Z,94531.84
2022-12-29T06:32:28.362Z,94535.03
2022-12-29T06:35:00.395Z,94543.13
2022-12-29T06:37:28.450Z,94546.22
2022-12-29T06:39:54.962Z,94550.91
2022-12-29T06:42:21.975Z,94557.06
2022-12-29T06:45:20.976Z,94553.41
2022-12-29T06:47:47.517Z,94563.66
2022-12-29T06:50:13.981Z,94567.31
2022-12-29T06:52:42.068Z,94573.25
2022-12-29T06:55:09.056Z,94560.28
2022-12-29T06:57:35.563Z,94563.69
2022-12-29T07:00:02.443Z,94570.19
2022-12-29T07:02:29.143Z,94572.16
2022-12-29T07:04:55.761Z,94579.47
2022-12-29T07:07:22.465Z,94588.34
2022-12-29T07:09:50.296Z,94598.28
2022-12-29T07:12:16.840Z,94608.69
2022-12-29T07:14:44.003Z,94612.47
2022-12-29T07:17:10.740Z,94613.13
2022-12-29T07:19:37.362Z,94612.81
2022-12-29T07:22:03.987Z,94609.25
2022-12-29T07:24:30.866Z,94609.16
2022-12-29T07:26:58.753Z,94618.97
2022-12-29T07:29:25.284Z,94618.75
2022-12-29T07:31:51.993Z,94631.78
2022-12-29T07:34:18.759Z,94636.25
2022-12-29T07:36:45.262Z,94643.41
2022-12-29T07:39:12.708Z,94644.06
2022-12-29T07:41:39.263Z,94644.97
2022-12-29T07:44:11.381Z,94645.88
2022-12-29T07:47:07.423Z,94653.03
2022-12-29T07:49:34.103Z,94654.47
2022-12-29T07:52:01.073Z,94671.22
2022-12-29T07:54:27.550Z,94666.19
2022-12-29T07:56:54.999Z,94669.50
2022-12-29T07:59:23.119Z,94669.38
2022-12-29T08:01:50.677Z,94672.06
2022-12-29T08:04:17.312Z,94685.59
2022-12-29T08:06:43.928Z,94685.00
2022-12-29T08:09:16.496Z,94680.56
2022-12-29T08:11:46.423Z,94685.25
2022-12-29T08:14:13.955Z,94680.06
2022-12-29T08:16:42.060Z,94688.59
2022-12-29T08:19:11.076Z,94695.84
2022-12-29T08:21:37.579Z,94688.78
2022-12-29T08:24:04.566Z,94693.03
2022-12-29T08:26:31.065Z,94697.22
2022-12-29T08:28:57.782Z,94694.25
2022-12-29T08:31:24.867Z,94692.56
2022-12-29T08:33:52.907Z,94691.22
2022-12-29T08:36:19.659Z,94696.91
2022-12-29T08:38:46.225Z,94693.94
2022-12-29T08:41:12.782Z,94682.28
2022-12-29T08:43:39.412Z,94689.03
2022-12-29T08:46:06.154Z,94688.34
2022-12-29T08:48:32.744Z,94691.84
2022-12-29T08:51:01.131Z,94695.84
2022-12-29T08:53:27.675Z,94687.72
2022-12-29T08:56:04.136Z,94702.31
2022-12-29T08:58:35.332Z,94679.84
2022-12-29T09:01:02.224Z,94687.09
2022-12-29T09:04:04.208Z,94702.25
2022-12-29T09:06:17.734Z,94713.75
2022-12-29T09:08:44.214Z,94699.22
2022-12-29T09:11:11.723Z,94699.84
2022-12-29T09:13:38.363Z,94699.72
2022-12-29T09:16:05.295Z,94706.91
2022-12-29T09:18:32.159Z,94702.28
2022-12-29T09:20:58.958Z,94703.19
2022-12-29T09:23:27.153Z,94694.44
2022-12-29T09:25:53.626Z,94690.81
2022-12-29T09:28:20.429Z,94698.28
2022-12-29T09:30:47.022Z,94702.75
2022-12-29T09:33:13.487Z,94702.41
2022-12-29T09:35:42.561Z,94701.78
2022-12-29T09:38:09.080Z,94704.00
2022-12-29T09:40:36.968Z,94698.38
2022-12-29T09:43:14.789Z,94696.66
2022-12-29T09:45:43.077Z,94698.19
2022-12-29T09:48:15.205Z,94687.28
2022-12-29T09:50:44.977Z,94684.72
2022-12-29T09:53:16.018Z,94676.81
2022-12-29T09:55:46.898Z,94682.38
2022-12-29T09:58:16.006Z,94687.69
2022-12-29T10:00:54.790Z,94696.53
2022-12-29T10:03:24.222Z,94688.22
2022-12-29T10:05:54.728Z,94688.34
2022-12-29T10:08:29.147Z,94691.09
2022-12-29T10:10:58.050Z,94685.63
2022-12-29T10:13:33.534Z,94676.66
2022-12-29T10:16:03.909Z,94661.09
2022-12-29T10:18:38.846Z,94673.97
2022-12-29T10:21:08.790Z,94649.66
2022-12-29T10:23:39.474Z,94637.47
2022-12-29T10:26:11.740Z,94631.38
2022-12-29T10:28:41.163Z,94636.88
2022-12-29T10:31:10.644Z,94626.28
2022-12-29T10:33:38.808Z,94625.47
2022-12-29T10:36:12.577Z,94626.28
2022-12-29T10:38:42.342Z,94608.06
2022-12-29T10:41:14.780Z,94612.28
2022-12-29T10:43:44.123Z,94608.63
2022-12-29T10:46:12.143Z,94608.09
2022-12-29T10:48:39.116Z,94613.16
2022-12-29T10:51:07.199Z,94608.72
2022-12-29T10:53:36.388Z,94600.03
2022-12-29T10:56:06.608Z,94593.25
2022-12-29T10:58:34.506Z,94600.72
2022-12-29T11:01:01.073Z,94602.38
2022-12-29T11:03:40.226Z,94610.09
2022-12-29T11:06:09.933Z,94594.31
2022-12-29T11:08:37.514Z,94608.34
2022-12-29T11:11:05.534Z,94619.16
2022-12-29T11:13:38.577Z,94604.94
2022-12-29T11:16:07.459Z,94608.63
2022-12-29T11:18:34.476Z,94606.53
2022-12-29T11:21:05.060Z,94602.84
2022-12-29T11:23:32.549Z,94592.03
2022-12-29T11:26:16.505Z,94584.09
2022-12-29T11:28:44.063Z,94580.69
2022-12-29T11:31:16.186Z,94564.84
2022-12-29T11:33:42.662Z,94570.69
2022-12-29T11:36:12.833Z,94568.91
2022-12-29T11:38:41.350Z,94556.75
2022-12-29T11:41:11.915Z,94558.06
2022-12-29T11:43:39.754Z,94553.06
2022-12-29T11:46:06.935Z,94555.69
2022-12-29T11:48:40.477Z,94559.97
2022-12-29T11:51:07.672Z,94563.75
2022-12-29T11:53:40.216Z,94558.81
2022-12-29T11:56:09.661Z,94550.09
2022-12-29T11:58:37.496Z,94557.44
2022-12-29T12:01:07.534Z,94544.84
2022-12-29T12:03:37.427Z,94540.13
2022-12-29T12:06:04.338Z,94531.09
2022-12-29T12:08:35.326Z,94523.88
2022-12-29T12:11:05.651Z,94530.44
2022-12-29T12:13:34.513Z,94525.50
2022-12-29T12:16:05.426Z,94533.16
2022-12-29T12:18:38.567Z,94535.16
2022-12-29T12:21:09.903Z,94534.13
2022-12-29T12:23:55.516Z,94527.44
2022-12-29T12:26:25.565Z,94522.13
2022-12-29T12:28:55.192Z,94520.91
2022-12-29T12:31:32.414Z,94522.66
2022-12-29T12:34:07.095Z,94522.47
2022-12-29T12:36:50.023Z,94521.09
2022-12-29T12:39:27.401Z,94521.06
2022-12-29T12:42:04.806Z,94525.63
2022-12-29T12:44:42.954Z,94507.72
2022-12-29T12:47:30.517Z,94507.69
2022-12-29T12:50:17.676Z,94503.50
2022-12-29T12:53:00.983Z,94503.69
2022-12-29T12:55:45.623Z,94496.00
2022-12-29T12:58:21.533Z,94501.59
2022-12-29T13:00:57.265Z,94497.47
2022-12-29T13:03:36.944Z,94492.03
2022-12-29T13:06:17.399Z,94479.91
2022-12-29T13:09:01.333Z,94488.66
2022-12-29T13:11:43.569Z,94491.66
2022-12-29T13:14:24.975Z,94495.09
2022-12-29T13:17:00.797Z,94495.72
2022-12-29T13:19:33.277Z,94485.72
2022-12-29T13:22:09.460Z,94486.25
2022-12-29T13:24:47.785Z,94489.84
2022-12-29T13:27:22.522Z,94488.25
2022-12-29T13:29:59.083Z,94478.03
2022-12-29T13:32:35.939Z,94483.25
2022-12-29T13:35:19.609Z,94483.63
2022-12-29T13:37:58.225Z,94473.97
2022-12-29T13:40:28.572Z,94477.88
2022-12-29T13:42:57.450Z,94476.66
2022-12-29T13:45:27.398Z,94482.06
2022-12-29T13:48:01.063Z,94474.97
2022-12-29T13:50:30.941Z,94470.53
2022-12-29T13:53:07.197Z,94459.22
2022-12-29T13:55:41.550Z,94469.59
2022-12-29T13:58:17.762Z,94475.75
2022-12-29T14:00:56.253Z,94474.78
2022-12-29T14:03:49.018Z,94467.13
2022-12-29T14:06:23.283Z,94475.13
2022-12-29T14:08:53.958Z,94483.38
2022-12-29T14:11:23.204Z,94474.94
2022-12-29T14:13:49.908Z,94471.31
2022-12-29T14:16:29.006Z,94477.97
2022-12-29T14:18:58.642Z,94472.97
2022-12-29T14:21:30.604Z,94474.31
2022-12-29T14:24:39.894Z,94473.84
2022-12-29T14:27:44.959Z,94471.22
2022-12-29T14:30:48.738Z,94486.06
2022-12-29T14:33:15.972Z,94483.97
2022-12-29T14:35:44.869Z,94482.94
2022-12-29T14:38:18.277Z,94483.97
2022-12-29T14:40:47.344Z,94480.00
2022-12-29T14:43:20.242Z,94475.81
2022-12-29T14:45:54.534Z,94483.75
2022-12-29T14:48:30.689Z,94482.16
2022-12-29T14:50:57.462Z,94487.97
2022-12-29T14:53:49.388Z,94494.06
2022-12-29T14:56:19.618Z,94492.22
2022-12-29T14:58:50.734Z,94494.59
2022-12-29T15:01:23.312Z,94502.78
2022-12-29T15:03:52.558Z,94501.75
2022-12-29T15:06:23.111Z,94507.81
2022-12-29T15:08:54.222Z,94524.69
2022-12-29T15:11:24.081Z,94520.19
2022-12-29T15:13:51.517Z,94516.97
2022-12-29T15:16:26.694Z,94519.59
2022-12-29T15:18:53.649Z,94518.50
2022-12-29T15:21:25.294Z,94519.25
2022-12-29T15:23:52.121Z,94525.84
2022-12-29T15:26:23.503Z,94524.47
2022-12-29T15:28:53.376Z,94533.13
2022-12-29T15:31:28.052Z,94525.91
2022-12-29T15:34:09.944Z,94523.78
2022-12-29T15:36:40.050Z,94523.75
2022-12-29T15:39:28.057Z,94523.97
2022-12-29T16:14:49.669Z,94562.88
2022-12-29T16:17:22.094Z,94558.59
2022-12-29T16:19:52.552Z,94558.06
2022-12-29T16:22:26.835Z,94550.38
2022-12-29T16:25:02.529Z,94554.88
2022-12-29T16:27:38.290Z,94566.19
2022-12-29T16:30:17.819Z,94561.69
2022-12-29T16:32:47.678Z,94553.28
2022-12-29T16:35:19.411Z,94560.63
2022-12-29T16:37:46.847Z,94560.28
2022-12-29T16:40:32.148Z,94555.59
2022-12-29T16:43:00.991Z,94561.13
2022-12-29T16:46:16.953Z,94561.91
2022-12-29T16:48:49.192Z,94557.13
2022-12-29T16:51:20.119Z,94562.13
2022-12-29T16:53:50.506Z,94562.91
2022-12-29T16:56:21.314Z,94557.06
2022-12-29T16:58:49.477Z,94552.53
2022-12-29T17:01:20.190Z,94556.75
2022-12-29T17:03:50.931Z,94557.88
2022-12-29T17:06:19.274Z,94566.31
2022-12-29T17:08:47.179Z,94568.38
2022-12-29T17:11:42.242Z,94565.03
2022-12-29T17:14:45.001Z,94562.13
2022-12-29T17:17:30.291Z,94567.41
2022-12-29T17:20:00.923Z,94554.19
2022-12-29T17:22:29.126Z,94561.22
2022-12-29T17:24:57.648Z,94567.91
2022-12-29T17:27:29.782Z,94574.31
2022-12-29T17:29:59.782Z,94560.00
2022-12-29T17:32:26.710Z,94552.84
2022-12-29T17:34:53.613Z,94554.59
2022-12-29T17:37:29.943Z,94542.72
2022-12-29T17:39:56.717Z,94549.25
2022-12-29T17:42:23.652Z,94560.03
2022-12-29T17:44:52.003Z,94563.44
2022-12-29T17:47:18.919Z,94568.22
2022-12-29T17:49:46.280Z,94576.50
2022-12-29T17:52:16.979Z,94578.38
2022-12-29T17:54:47.654Z,94580.53
2022-12-29T17:57:15.773Z,94580.06
2022-12-29T17:59:43.621Z,94576.16
2022-12-29T18:02:24.831Z,94578.88
2022-12-29T18:04:52.306Z,94582.84
2022-12-29T18:07:19.021Z,94587.06
2022-12-29T18:09:45.748Z,94580.44
2022-12-29T18:12:27.131Z,94587.53
2022-12-29T18:14:53.959Z,94584.34
2022-12-29T18:17:21.975Z,94584.34
2022-12-29T18:19:50.603Z,94584.03
2022-12-29T18:22:17.312Z,94591.53
2022-12-29T18:24:44.213Z,94584.31
2022-12-29T18:27:13.253Z,94587.66
2022-12-29T18:29:40.488Z,94589.72
2022-12-29T18:32:11.950Z,94584.66
2022-12-29T18:34:40.699Z,94591.88
2022-12-29T18:37:08.097Z,94592.78
2022-12-29T18:39:35.425Z,94607.56
2022-12-29T18:42:02.359Z,94607.94
2022-12-29T18:44:29.122Z,94607.94
2022-12-29T18:46:55.947Z,94614.53
2022-12-29T18:49:23.334Z,94611.91
2022-12-29T18:51:51.422Z,94608.41
2022-12-29T18:54:26.529Z,94603.41
2022-12-29T18:56:54.455Z,94614.38
2022-12-29T18:59:21.134Z,94612.00
2022-12-29T19:01:48.123Z,94616.13
2022-12-29T19:04:15.419Z,94616.38
2022-12-29T19:06:42.370Z,94618.66
2022-12-29T19:09:10.375Z,94615.72
2022-12-29T19:11:37.028Z,94612.03
2022-12-29T19:14:03.752Z,94610.47
2022-12-29T19:16:30.587Z,94609.91
2022-12-29T19:19:08.931Z,94622.44
2022-12-29T19:21:36.774Z,94616.41
2022-12-29T19:24:03.874Z,94609.31
2022-12-29T19:26:36.715Z,94600.34
2022-12-29T19:29:04.573Z,94606.28
2022-12-29T19:31:31.296Z,94607.91
2022-12-29T19:33:58.133Z,94617.69
2022-12-29T19:36:25.119Z,94619.03
2022-12-29T19:38:51.825Z,94610.63
2022-12-29T19:41:18.643Z,94613.47
2022-12-29T19:43:46.949Z,94613.00
2022-12-29T19:46:16.851Z,94617.78
2022-12-29T19:48:43.782Z,94616.50
2022-12-29T19:51:13.708Z,94602.59
2022-12-29T19:53:40.433Z,94605.91
2022-12-29T19:56:08.934Z,94614.03
2022-12-29T19:58:36.901Z,94605.38
2022-12-29T20:01:08.885Z,94615.63
2022-12-29T20:03:36.157Z,94610.94
2022-12-29T20:06:04.403Z,94615.72
2022-12-29T20:08:32.196Z,94612.03
2022-12-29T20:11:00.777Z,94617.44
2022-12-29T20:13:28.228Z,94613.69
2022-12-29T20:16:00.392Z,94620.22
2022-12-29T20:18:29.731Z,94611.22
2022-12-29T20:21:01.704Z,94612.25
2022-12-29T20:23:28.576Z,94614.41
2022-12-29T20:25:56.407Z,94600.56
2022-12-29T20:28:23.962Z,94594.88
2022-12-29T20:30:55.720Z,94596.78
2022-12-29T20:33:22.925Z,94588.66
2022-12-29T20:35:51.491Z,94583.16
2022-12-29T20:38:18.693Z,94580.53
2022-12-29T20:40:47.104Z,94583.41
2022-12-29T20:43:15.750Z,94580.78
2022-12-29T20:45:42.684Z,94575.06
2022-12-29T20:48:09.636Z,94582.25
2022-12-29T20:50:36.297Z,94583.59
2022-12-29T20:53:04.568Z,94582.88
2022-12-29T20:55:31.247Z,94582.16
2022-12-29T20:58:23.078Z,94580.88
2022-12-29T21:00:45.173Z,94575.06
2022-12-29T21:03:12.080Z,94571.91
2022-12-29T21:05:39.025Z,94568.72
2022-12-29T21:08:07.476Z,94559.47
2022-12-29T21:10:34.164Z,94562.81
2022-12-29T21:13:01.643Z,94560.34
2022-12-29T21:15:30.107Z,94562.06
2022-12-29T21:17:56.846Z,94560.75
2022-12-29T21:20:30.294Z,94559.94
2022-12-29T21:22:57.582Z,94557.22
2022-12-29T21:25:25.888Z,94561.09
2022-12-29T21:27:52.642Z,94563.19
2022-12-29T21:30:19.327Z,94561.84
2022-12-29T21:32:46.132Z,94574.63
2022-12-29T21:35:12.830Z,94577.13
2022-12-29T21:37:40.037Z,94578.66
2022-12-29T21:40:07.429Z,94587.00
2022-12-29T21:42:35.465Z,94595.88
2022-12-29T21:45:21.300Z,94603.06
2022-12-29T21:48:11.062Z,94594.41
2022-12-29T21:50:58.466Z,94606.16
2022-12-29T21:53:38.036Z,94608.91
2022-12-29T21:56:06.400Z,94606.19
2022-12-29T21:58:54.216Z,94607.22
2022-12-29T22:01:40.058Z,94610.53
2022-12-29T22:04:25.705Z,94598.94
2022-12-29T22:07:11.490Z,94603.81
2022-12-29T22:09:56.841Z,94610.13
2022-12-29T22:12:43.212Z,94609.53
2022-12-29T22:15:11.844Z,94612.84
2022-12-29T22:17:41.243Z,94614.69
2022-12-29T22:20:10.811Z,94616.19
2022-12-29T22:22:37.660Z,94626.91
2022-12-29T22:25:05.217Z,94623.69
2022-12-29T22:27:32.240Z,94623.69
2022-12-29T22:29:58.955Z,94631.81
2022-12-29T22:32:27.689Z,94634.56
2022-12-29T22:34:54.614Z,94619.59
2022-12-29T22:37:21.752Z,94626.53
2022-12-29T22:39:48.541Z,94638.38
2022-12-29T22:42:15.874Z,94630.06
2022-12-29T22:44:43.009Z,94635.09
2022-12-29T22:47:10.177Z,94642.94
2022-12-29T22:49:38.191Z,94645.91
2022-12-29T22:52:05.527Z,94655.47
2022-12-29T22:54:32.260Z,94656.13
2022-12-29T22:56:59.058Z,94653.88
2022-12-29T22:59:25.814Z,94659.31
2022-12-29T23:01:52.583Z,94664.91
2022-12-29T23:05:01.630Z,94657.13
2022-12-29T23:07:08.010Z,94647.31
2022-12-29T23:09:34.965Z,94650.34
2022-12-29T23:12:01.652Z,94661.59
2022-12-29T23:14:28.702Z,94652.66
2022-12-29T23:16:55.315Z,94651.22
2022-12-29T23:19:22.009Z,94650.53
2022-12-29T23:21:48.960Z,94646.97
2022-12-29T23:24:16.979Z,94654.91
2022-12-29T23:26:46.057Z,94646.66
2022-12-29T23:29:15.715Z,94652.31
2022-12-29T23:31:43.187Z,94652.16
2022-12-29T23:34:12.301Z,94638.06
2022-12-29T23:36:40.017Z,94636.31
2022-12-29T23:39:08.675Z,94631.63
2022-12-29T23:41:37.116Z,94648.50
2022-12-29T23:44:04.477Z,94658.53
2022-12-29T23:46:31.483Z,94660.69
2022-12-29T23:48:58.989Z,94654.63
2022-12-29T23:51:26.223Z,94650.41
2022-12-29T23:53:52.947Z,94658.53
2022-12-29T23:56:21.935Z,94663.78
2022-12-29T23:58:50.980Z,94668.97
